createdAt,value
2019-05-01T00:01:01.546Z,50.83
2019-05-01T00:04:00.974Z,43.13
2019-05-01T00:06:36.905Z,47.60
2019-05-01T00:09:09.207Z,50.57
2019-05-01T00:11:40.561Z,46.43
2019-05-01T00:14:12.158Z,53.67
2019-05-01T00:16:43.996Z,44.43
2019-05-01T00:19:15.355Z,45.57
2019-05-01T00:21:46.726Z,51.50
2019-05-01T00:24:18.049Z,48.27
2019-05-01T00:26:49.328Z,51.97
2019-05-01T00:29:20.621Z,54.57
2019-05-01T00:31:51.889Z,49.60
2019-05-01T00:34:23.249Z,69.70
2019-05-01T00:36:54.615Z,46.10
2019-05-01T00:39:27.675Z,50.40
2019-05-01T00:41:58.941Z,43.20
2019-05-01T00:44:30.217Z,42.20
2019-05-01T00:47:01.555Z,42.87
2019-05-01T00:49:32.958Z,37.10
2019-05-01T00:52:04.571Z,35.03
2019-05-01T00:54:37.498Z,51.20
2019-05-01T00:57:34.304Z,51.03
2019-05-01T01:00:25.552Z,37.03
2019-05-01T01:02:57.353Z,38.90
2019-05-01T01:05:28.608Z,38.37
2019-05-01T01:08:00.100Z,47.53
2019-05-01T01:10:31.377Z,39.80
2019-05-01T01:13:04.323Z,38.40
2019-05-01T01:15:35.624Z,43.13
2019-05-01T01:18:07.058Z,46.83
2019-05-01T01:20:38.327Z,41.43
2019-05-01T01:23:10.583Z,39.60
2019-05-01T01:25:42.015Z,40.40
2019-05-01T01:28:13.388Z,40.10
2019-05-01T01:30:55.770Z,52.50
2019-05-01T01:33:19.479Z,48.90
2019-05-01T01:35:50.934Z,39.10
2019-05-01T01:38:22.265Z,42.03
2019-05-01T01:40:53.918Z,46.10
2019-05-01T01:43:42.967Z,44.87
2019-05-01T01:46:16.167Z,41.20
2019-05-01T01:48:47.842Z,54.10
2019-05-01T01:51:20.105Z,54.43
2019-05-01T01:53:53.367Z,47.87
2019-05-01T01:56:24.869Z,43.30
2019-05-01T01:58:56.627Z,47.80
2019-05-01T02:01:41.382Z,48.93
2019-05-01T02:04:31.311Z,49.87
2019-05-01T02:07:02.581Z,54.57
2019-05-01T02:09:33.917Z,42.67
2019-05-01T02:12:05.840Z,47.40
2019-05-01T02:14:37.162Z,51.60
2019-05-01T02:17:08.589Z,54.07
2019-05-01T02:19:40.000Z,49.17
2019-05-01T02:22:11.316Z,45.37
2019-05-01T02:24:43.655Z,46.87
2019-05-01T02:27:23.101Z,49.83
2019-05-01T02:29:57.440Z,57.57
2019-05-01T02:32:30.067Z,52.17
2019-05-01T02:35:01.877Z,57.17
2019-05-01T02:37:34.769Z,51.00
2019-05-01T02:40:26.652Z,52.27
2019-05-01T02:42:59.723Z,51.17
2019-05-01T02:45:32.379Z,52.40
2019-05-01T02:48:04.970Z,51.60
2019-05-01T02:50:39.336Z,50.37
2019-05-01T02:53:10.967Z,52.30
2019-05-01T02:55:47.806Z,49.47
2019-05-01T02:58:19.312Z,68.73
2019-05-01T03:00:50.643Z,60.93
2019-05-01T03:03:22.034Z,50.67
2019-05-01T03:05:53.310Z,56.03
2019-05-01T03:08:24.694Z,57.63
2019-05-01T03:10:56.046Z,52.27
2019-05-01T03:13:27.508Z,47.10
2019-05-01T03:15:59.579Z,49.83
2019-05-01T03:18:36.005Z,52.63
2019-05-01T03:21:35.158Z,57.47
2019-05-01T03:24:16.169Z,54.20
2019-05-01T03:26:48.840Z,48.87
2019-05-01T03:29:20.713Z,59.00
2019-05-01T03:32:14.240Z,52.70
2019-05-01T03:34:25.492Z,54.73
2019-05-01T03:36:56.969Z,54.30
2019-05-01T03:39:28.697Z,58.67
2019-05-01T03:42:00.080Z,55.07
2019-05-01T03:44:31.634Z,59.20
2019-05-01T03:47:02.925Z,51.33
2019-05-01T03:49:34.315Z,63.97
2019-05-01T03:52:05.643Z,50.10
2019-05-01T03:54:37.176Z,51.87
2019-05-01T03:57:12.532Z,53.13
2019-05-01T03:59:42.049Z,50.57
2019-05-01T04:02:35.682Z,52.90
2019-05-01T04:05:07.423Z,53.83
2019-05-01T04:07:38.847Z,47.30
2019-05-01T04:10:10.200Z,48.90
2019-05-01T04:12:42.385Z,46.33
2019-05-01T04:15:13.976Z,53.70
2019-05-01T04:17:49.963Z,52.00
2019-05-01T04:20:21.283Z,50.60
2019-05-01T04:22:52.837Z,49.53
2019-05-01T04:25:24.775Z,45.93
2019-05-01T04:27:58.830Z,42.30
2019-05-01T04:30:43.240Z,46.33
2019-05-01T04:33:16.369Z,43.97
2019-05-01T04:35:52.438Z,48.50
2019-05-01T04:38:23.697Z,53.40
2019-05-01T04:40:55.056Z,43.90
2019-05-01T04:43:26.636Z,46.57
2019-05-01T04:45:58.202Z,49.37
2019-05-01T04:48:29.667Z,42.50
2019-05-01T04:51:01.026Z,46.80
2019-05-01T04:53:32.542Z,40.90
2019-05-01T04:56:04.231Z,40.70
2019-05-01T04:58:35.901Z,46.93
2019-05-01T05:01:07.630Z,41.90
2019-05-01T05:03:39.144Z,47.73
2019-05-01T05:06:10.876Z,47.13
2019-05-01T05:08:42.247Z,48.50
2019-05-01T05:11:18.990Z,40.57
2019-05-01T05:14:08.097Z,44.37
2019-05-01T05:16:48.987Z,43.70
2019-05-01T05:19:20.400Z,42.73
2019-05-01T05:21:52.573Z,42.53
2019-05-01T05:24:23.827Z,46.17
2019-05-01T05:26:55.284Z,43.53
2019-05-01T05:29:28.673Z,46.23
2019-05-01T05:32:02.875Z,38.83
2019-05-01T05:34:34.433Z,52.17
2019-05-01T05:37:16.914Z,44.67
2019-05-01T05:39:49.588Z,46.60
2019-05-01T05:42:21.150Z,50.67
2019-05-01T05:44:52.818Z,49.53
2019-05-01T05:47:25.568Z,44.30
2019-05-01T05:49:57.156Z,52.17
2019-05-01T05:52:49.474Z,53.30
2019-05-01T05:55:50.261Z,46.97
2019-05-01T05:58:32.413Z,44.50
2019-05-01T06:01:22.932Z,48.40
2019-05-01T06:04:24.085Z,51.70
2019-05-01T06:07:07.340Z,50.37
2019-05-01T06:09:48.563Z,51.07
2019-05-01T06:12:31.114Z,45.83
2019-05-01T06:15:14.334Z,54.30
2019-05-01T06:17:59.162Z,47.73
2019-05-01T06:20:34.061Z,50.07
2019-05-01T06:23:34.449Z,50.60
2019-05-01T06:26:37.238Z,58.13
2019-05-01T06:29:05.112Z,47.93
2019-05-01T06:31:37.240Z,45.60
2019-05-01T06:34:08.512Z,46.57
2019-05-01T06:36:44.139Z,46.17
2019-05-01T06:39:13.320Z,47.63
2019-05-01T06:41:45.135Z,46.90
2019-05-01T06:44:39.104Z,44.60
2019-05-01T06:47:43.165Z,45.77
2019-05-01T06:50:26.301Z,44.70
2019-05-01T06:52:59.841Z,49.17
2019-05-01T06:55:31.310Z,49.60
2019-05-01T06:58:02.639Z,42.27
2019-05-01T07:00:34.551Z,47.50
2019-05-01T07:03:10.054Z,44.57
2019-05-01T07:05:39.997Z,47.00
2019-05-01T07:08:24.032Z,44.70
2019-05-01T07:10:45.923Z,50.30
2019-05-01T07:13:17.592Z,51.07
2019-05-01T07:15:48.965Z,54.53
2019-05-01T07:18:24.089Z,51.93
2019-05-01T07:20:53.940Z,50.20
2019-05-01T07:23:25.299Z,50.07
2019-05-01T07:25:56.572Z,43.87
2019-05-01T07:28:34.480Z,43.80
2019-05-01T07:31:06.249Z,44.40
2019-05-01T07:33:37.806Z,42.43
2019-05-01T07:36:15.248Z,38.67
2019-05-01T07:38:43.375Z,46.77
2019-05-01T07:41:14.778Z,42.07
2019-05-01T07:44:11.122Z,47.33
2019-05-01T07:47:00.243Z,43.67
2019-05-01T07:49:52.722Z,38.40
2019-05-01T07:52:23.722Z,42.13
2019-05-01T07:54:56.439Z,38.60
2019-05-01T07:57:28.098Z,46.60
2019-05-01T08:00:03.757Z,36.23
2019-05-01T08:02:33.029Z,38.87
2019-05-01T08:05:10.023Z,36.60
2019-05-01T08:07:38.192Z,40.07
2019-05-01T08:10:09.933Z,39.53
2019-05-01T08:12:41.420Z,32.50
2019-05-01T08:15:12.684Z,39.87
2019-05-01T08:17:48.727Z,36.87
2019-05-01T08:20:28.641Z,37.17
2019-05-01T08:23:00.078Z,38.47
2019-05-01T08:25:33.282Z,39.50
2019-05-01T08:28:27.676Z,36.67
2019-05-01T08:31:27.883Z,40.80
2019-05-01T08:34:03.078Z,39.37
2019-05-01T08:36:34.402Z,37.67
2019-05-01T08:39:10.323Z,41.17
2019-05-01T08:41:42.231Z,37.20
2019-05-01T08:44:13.597Z,48.53
2019-05-01T08:47:03.817Z,40.70
2019-05-01T08:49:57.059Z,43.60
2019-05-01T08:52:28.332Z,42.90
2019-05-01T08:54:59.635Z,33.93
2019-05-01T08:57:34.533Z,35.33
2019-05-01T09:00:04.202Z,40.00
2019-05-01T09:02:36.768Z,44.33
2019-05-01T09:05:21.518Z,33.70
2019-05-01T09:07:42.257Z,33.87
2019-05-01T09:10:17.118Z,34.20
2019-05-01T09:12:48.688Z,33.70
2019-05-01T09:15:20.574Z,34.20
2019-05-01T09:17:51.932Z,35.33
2019-05-01T09:20:23.217Z,30.43
2019-05-01T09:22:54.520Z,27.23
2019-05-01T09:25:35.265Z,30.93
2019-05-01T09:28:16.236Z,34.57
2019-05-01T09:30:53.297Z,39.40
2019-05-01T09:33:26.177Z,33.50
2019-05-01T09:35:58.505Z,37.10
2019-05-01T09:38:30.190Z,29.80
2019-05-01T09:41:01.633Z,33.57
2019-05-01T09:43:35.618Z,33.57
2019-05-01T09:46:06.173Z,27.00
2019-05-01T09:48:37.537Z,30.53
2019-05-01T09:51:17.621Z,25.97
2019-05-01T09:54:00.560Z,30.83
2019-05-01T09:56:31.862Z,29.70
2019-05-01T09:59:03.208Z,26.37
2019-05-01T10:01:34.761Z,31.00
2019-05-01T10:04:06.300Z,33.03
2019-05-01T10:06:37.771Z,26.43
2019-05-01T10:09:12.053Z,27.83
2019-05-01T10:11:42.530Z,30.60
2019-05-01T10:14:13.915Z,30.90
2019-05-01T10:16:47.465Z,27.47
2019-05-01T10:19:18.767Z,33.13
2019-05-01T10:21:51.650Z,24.97
2019-05-01T10:24:23.043Z,26.53
2019-05-01T10:27:00.129Z,26.47
2019-05-01T10:29:48.192Z,24.80
2019-05-01T10:32:32.419Z,24.90
2019-05-01T10:35:19.123Z,21.33
2019-05-01T10:37:52.212Z,29.23
2019-05-01T10:40:26.984Z,20.03
2019-05-01T10:42:56.653Z,19.37
2019-05-01T10:45:28.100Z,17.80
2019-05-01T10:47:59.597Z,19.53
2019-05-01T10:50:30.874Z,22.43
2019-05-01T10:53:02.152Z,19.20
2019-05-01T10:55:33.436Z,16.50
2019-05-01T10:58:04.736Z,21.40
2019-05-01T11:00:37.858Z,21.60
2019-05-01T11:03:09.801Z,29.50
2019-05-01T11:05:41.097Z,16.40
2019-05-01T11:08:12.552Z,19.97
2019-05-01T11:10:43.931Z,20.17
2019-05-01T11:13:15.276Z,26.10
2019-05-01T11:15:46.669Z,18.13
2019-05-01T11:18:18.335Z,21.53
2019-05-01T11:20:49.747Z,19.13
2019-05-01T11:23:21.138Z,22.13
2019-05-01T11:25:52.503Z,18.90
2019-05-01T11:28:23.792Z,20.90
2019-05-01T11:30:55.150Z,16.27
2019-05-01T11:34:03.460Z,22.03
2019-05-01T11:37:00.002Z,20.20
2019-05-01T11:39:40.781Z,17.77
2019-05-01T11:42:13.788Z,21.13
2019-05-01T11:44:45.272Z,15.80
2019-05-01T11:47:16.546Z,19.90
2019-05-01T11:49:47.914Z,15.83
2019-05-01T11:52:19.241Z,18.37
2019-05-01T11:54:50.611Z,18.33
2019-05-01T11:57:21.889Z,19.33
2019-05-01T11:59:53.330Z,14.07
2019-05-01T12:02:24.733Z,16.17
2019-05-01T12:04:56.261Z,16.23
2019-05-01T12:07:27.664Z,16.70
2019-05-01T12:09:59.008Z,16.53
2019-05-01T12:12:32.129Z,28.60
2019-05-01T12:15:04.205Z,23.57
2019-05-01T12:17:56.028Z,17.07
2019-05-01T12:20:27.367Z,14.33
2019-05-01T12:22:58.854Z,16.90
2019-05-01T12:25:30.319Z,15.93
2019-05-01T12:28:01.701Z,16.47
2019-05-01T12:30:33.070Z,17.50
2019-05-01T12:33:04.390Z,16.33
2019-05-01T12:35:35.917Z,14.90
2019-05-01T12:38:07.354Z,19.43
2019-05-01T12:40:39.286Z,18.83
2019-05-01T12:43:18.878Z,20.37
2019-05-01T12:45:51.760Z,18.10
2019-05-01T12:48:23.118Z,32.20
2019-05-01T12:50:54.545Z,17.80
2019-05-01T12:53:45.952Z,20.63
2019-05-01T12:56:33.458Z,19.70
2019-05-01T12:59:04.756Z,16.23
2019-05-01T13:01:36.039Z,23.93
2019-05-01T13:04:07.392Z,15.57
2019-05-01T13:06:48.862Z,16.57
2019-05-01T13:09:12.352Z,19.60
2019-05-01T13:11:43.704Z,17.70
2019-05-01T13:14:15.001Z,19.70
2019-05-01T13:16:46.296Z,18.00
2019-05-01T13:19:28.944Z,22.00
2019-05-01T13:22:00.235Z,22.43
2019-05-01T13:24:31.618Z,23.07
2019-05-01T13:27:10.632Z,25.73
2019-05-01T13:29:46.269Z,25.27
2019-05-01T13:32:39.291Z,28.77
2019-05-01T13:35:10.815Z,23.93
2019-05-01T13:37:42.304Z,27.43
2019-05-01T13:40:14.463Z,25.40
2019-05-01T13:42:45.799Z,20.43
2019-05-01T13:45:19.747Z,22.73
2019-05-01T13:47:51.036Z,18.60
2019-05-01T13:50:22.711Z,20.90
2019-05-01T13:52:54.191Z,19.63
2019-05-01T13:55:25.608Z,18.87
2019-05-01T13:57:56.892Z,20.13
2019-05-01T14:00:28.277Z,19.10
2019-05-01T14:02:59.651Z,29.03
2019-05-01T14:05:31.145Z,25.93
2019-05-01T14:08:02.665Z,21.20
2019-05-01T14:10:34.138Z,21.50
2019-05-01T14:13:05.631Z,20.40
2019-05-01T14:15:36.946Z,22.70
2019-05-01T14:18:08.348Z,21.10
2019-05-01T14:20:58.610Z,23.13
2019-05-01T14:23:52.116Z,23.10
2019-05-01T14:26:23.437Z,25.10
2019-05-01T14:28:54.801Z,24.97
2019-05-01T14:31:26.314Z,25.37
2019-05-01T14:33:57.685Z,23.00
2019-05-01T14:36:28.996Z,28.77
2019-05-01T14:39:00.441Z,36.77
2019-05-01T14:41:31.853Z,22.90
2019-05-01T14:44:03.230Z,27.87
2019-05-01T14:46:34.659Z,31.07
2019-05-01T14:49:06.486Z,28.53
2019-05-01T14:51:37.786Z,28.50
2019-05-01T14:54:09.102Z,30.60
2019-05-01T14:56:43.262Z,33.97
2019-05-01T14:59:13.454Z,29.90
2019-05-01T15:01:47.173Z,33.53
2019-05-01T15:04:17.766Z,32.43
2019-05-01T15:06:49.022Z,32.80
2019-05-01T15:09:20.367Z,34.93
2019-05-01T15:11:51.688Z,39.80
2019-05-01T15:14:35.094Z,32.63
2019-05-01T15:17:25.498Z,31.20
2019-05-01T15:20:02.837Z,30.13
2019-05-01T15:22:34.112Z,32.00
2019-05-01T15:25:05.785Z,30.67
2019-05-01T15:27:37.278Z,46.73
2019-05-01T15:30:10.045Z,32.90
2019-05-01T15:32:41.414Z,27.23
2019-05-01T15:35:12.835Z,36.53
2019-05-01T15:37:55.941Z,33.43
2019-05-01T15:40:32.134Z,30.20
2019-05-01T15:43:24.080Z,28.57
2019-05-01T15:45:55.403Z,29.50
2019-05-01T15:48:26.791Z,28.20
2019-05-01T15:50:58.078Z,30.83
2019-05-01T15:53:29.391Z,36.70
2019-05-01T15:56:00.771Z,28.57
2019-05-01T15:58:32.063Z,26.67
2019-05-01T16:01:03.445Z,30.27
2019-05-01T16:03:34.792Z,31.70
2019-05-01T16:06:08.318Z,28.63
2019-05-01T16:08:39.349Z,25.47
2019-05-01T16:11:22.944Z,29.50
2019-05-01T16:13:54.264Z,28.03
2019-05-01T16:16:25.640Z,27.33
2019-05-01T16:18:57.009Z,35.63
2019-05-01T16:21:28.484Z,33.17
2019-05-01T16:23:59.841Z,27.47
2019-05-01T16:26:31.182Z,25.97
2019-05-01T16:29:02.486Z,28.77
2019-05-01T16:31:33.796Z,26.17
2019-05-01T16:34:05.103Z,26.30
2019-05-01T16:36:36.450Z,30.13
2019-05-01T16:39:27.422Z,26.90
2019-05-01T16:41:58.808Z,28.43
2019-05-01T16:44:30.089Z,30.20
2019-05-01T16:47:01.505Z,28.53
2019-05-01T16:49:32.845Z,26.97
2019-05-01T16:52:04.278Z,33.20
2019-05-01T16:54:35.632Z,35.43
2019-05-01T16:57:12.687Z,28.70
2019-05-01T16:59:44.015Z,30.97
2019-05-01T17:02:37.370Z,29.17
2019-05-01T17:05:26.891Z,32.90
2019-05-01T17:08:08.993Z,27.40
2019-05-01T17:10:44.949Z,33.53
2019-05-01T17:13:25.009Z,27.10
2019-05-01T17:15:56.668Z,33.93
2019-05-01T17:18:28.088Z,28.07
2019-05-01T17:20:59.480Z,36.57
2019-05-01T17:23:30.856Z,30.57
2019-05-01T17:26:02.141Z,39.63
2019-05-01T17:28:33.574Z,30.00
2019-05-01T17:31:06.795Z,32.93
2019-05-01T17:33:38.181Z,38.20
2019-05-01T17:36:09.497Z,34.43
2019-05-01T17:38:49.309Z,28.90
2019-05-01T17:41:13.845Z,38.17
2019-05-01T17:43:49.445Z,51.60
2019-05-01T17:46:18.287Z,44.77
2019-05-01T17:48:50.528Z,39.13
2019-05-01T17:51:21.918Z,71.67
2019-05-01T17:53:53.221Z,54.53
2019-05-01T17:56:28.372Z,47.70
2019-05-01T17:58:57.633Z,44.37
2019-05-01T18:01:46.871Z,33.17
2019-05-01T18:04:30.517Z,39.03
2019-05-01T18:07:01.933Z,114.17
2019-05-01T18:09:34.276Z,40.20
2019-05-01T18:12:05.573Z,36.40
2019-05-01T18:14:37.146Z,36.83
2019-05-01T18:17:08.819Z,37.27
2019-05-01T18:19:40.468Z,38.33
2019-05-01T18:22:23.802Z,30.17
2019-05-01T18:25:14.161Z,31.47
2019-05-01T18:28:01.956Z,35.50
2019-05-01T18:30:37.435Z,39.43
2019-05-01T18:33:08.973Z,33.90
2019-05-01T18:35:40.273Z,32.40
2019-05-01T18:38:47.629Z,35.93
2019-05-01T18:41:25.159Z,38.67
2019-05-01T18:43:56.483Z,33.87
2019-05-01T18:46:27.860Z,37.13
2019-05-01T18:48:59.258Z,50.43
2019-05-01T18:51:30.606Z,37.80
2019-05-01T18:54:01.975Z,43.27
2019-05-01T18:56:38.094Z,47.77
2019-05-01T18:59:06.645Z,40.73
2019-05-01T19:01:38.058Z,38.40
2019-05-01T19:04:09.576Z,40.90
2019-05-01T19:06:44.793Z,41.97
2019-05-01T19:09:15.330Z,35.97
2019-05-01T19:11:46.730Z,46.77
2019-05-01T19:14:18.487Z,44.10
2019-05-01T19:16:49.841Z,45.27
2019-05-01T19:19:21.416Z,37.70
2019-05-01T19:21:52.852Z,40.13
2019-05-01T19:24:24.289Z,50.43
2019-05-01T19:26:55.587Z,41.60
2019-05-01T19:29:32.092Z,40.40
2019-05-01T19:32:00.035Z,39.80
2019-05-01T19:34:31.416Z,40.07
2019-05-01T19:37:02.747Z,42.50
2019-05-01T19:39:43.607Z,56.73
2019-05-01T19:42:07.073Z,47.33
2019-05-01T19:44:38.356Z,45.70
2019-05-01T19:47:09.710Z,47.13
2019-05-01T19:49:41.030Z,46.50
2019-05-01T19:52:12.381Z,49.97
2019-05-01T19:54:43.731Z,48.63
2019-05-01T19:57:15.093Z,51.90
2019-05-01T19:59:46.427Z,49.70
2019-05-01T20:02:22.085Z,49.07
2019-05-01T20:04:52.335Z,53.47
2019-05-01T20:07:23.940Z,59.90
2019-05-01T20:09:56.919Z,55.83
2019-05-01T20:12:29.875Z,51.67
2019-05-01T20:15:01.534Z,51.37
2019-05-01T20:17:32.878Z,58.57
2019-05-01T20:20:04.859Z,53.30
2019-05-01T20:22:36.183Z,49.73
2019-05-01T20:25:07.761Z,51.20
2019-05-01T20:27:40.153Z,51.10
2019-05-01T20:30:12.342Z,53.17
2019-05-01T20:32:43.700Z,55.70
2019-05-01T20:35:15.088Z,54.50
2019-05-01T20:37:46.416Z,54.43
2019-05-01T20:40:17.812Z,52.80
2019-05-01T20:42:49.141Z,54.83
2019-05-01T20:45:20.720Z,45.67
2019-05-01T20:47:54.318Z,56.87
2019-05-01T20:50:25.245Z,62.47
2019-05-01T20:52:56.598Z,56.03
2019-05-01T20:55:27.993Z,64.03
2019-05-01T20:58:18.400Z,56.43
2019-05-01T21:00:57.198Z,60.70
2019-05-01T21:03:28.519Z,61.77
2019-05-01T21:06:07.776Z,59.27
2019-05-01T21:08:44.990Z,61.70
2019-05-01T21:11:20.400Z,57.67
2019-05-01T21:13:56.597Z,66.17
2019-05-01T21:16:24.743Z,54.40
2019-05-01T21:18:56.054Z,59.00
2019-05-01T21:21:27.399Z,61.90
2019-05-01T21:23:58.709Z,59.50
2019-05-01T21:26:30.014Z,59.27
2019-05-01T21:29:01.344Z,55.27
2019-05-01T21:31:34.119Z,52.87
2019-05-01T21:34:05.607Z,57.23
2019-05-01T21:36:37.109Z,56.57
2019-05-01T21:39:09.693Z,58.70
2019-05-01T21:41:43.174Z,63.50
2019-05-01T21:44:14.196Z,52.20
2019-05-01T21:46:45.502Z,53.70
2019-05-01T21:49:16.837Z,58.67
2019-05-01T21:51:48.328Z,55.70
2019-05-01T21:54:20.748Z,56.10
2019-05-01T21:56:52.848Z,56.57
2019-05-01T21:59:25.469Z,58.33
2019-05-01T22:01:56.849Z,59.33
2019-05-01T22:04:31.923Z,66.33
2019-05-01T22:07:01.325Z,59.10
2019-05-01T22:09:32.614Z,60.80
2019-05-01T22:12:08.310Z,66.70
2019-05-01T22:14:49.530Z,58.70
2019-05-01T22:17:32.252Z,74.57
2019-05-01T22:20:05.331Z,67.33
2019-05-01T22:22:55.588Z,62.27
2019-05-01T22:25:33.904Z,59.97
2019-05-01T22:28:13.987Z,69.37
2019-05-01T22:30:48.803Z,70.77
2019-05-01T22:33:20.126Z,66.87
2019-05-01T22:35:52.821Z,74.00
2019-05-01T22:38:24.202Z,73.90
2019-05-01T22:41:12.461Z,81.73
2019-05-01T22:43:43.935Z,70.53
2019-05-01T22:46:28.106Z,63.27
2019-05-01T22:48:59.453Z,60.17
2019-05-01T22:51:30.828Z,64.77
2019-05-01T22:54:02.189Z,62.87
2019-05-01T22:56:33.563Z,67.77
2019-05-01T22:59:05.057Z,62.70
2019-05-01T23:01:36.733Z,64.83
2019-05-01T23:04:12.024Z,69.87
2019-05-01T23:06:43.081Z,68.73
2019-05-01T23:09:16.503Z,67.20
2019-05-01T23:11:47.867Z,70.97
2019-05-01T23:14:19.430Z,61.83
2019-05-01T23:17:02.822Z,57.23
2019-05-01T23:19:31.682Z,65.20
2019-05-01T23:22:03.053Z,70.33
2019-05-01T23:24:34.461Z,80.10
2019-05-01T23:27:05.996Z,64.07
2019-05-01T23:29:37.289Z,67.73
2019-05-01T23:32:08.590Z,70.77
2019-05-01T23:34:39.914Z,65.30
2019-05-01T23:37:11.351Z,67.70
2019-05-01T23:39:42.640Z,71.17
2019-05-01T23:42:13.996Z,76.57
2019-05-01T23:44:45.393Z,70.23
2019-05-01T23:47:16.684Z,66.63
2019-05-01T23:49:52.674Z,68.93
2019-05-01T23:52:21.161Z,79.13
2019-05-01T23:54:53.423Z,68.10
2019-05-01T23:57:24.757Z,73.77
2019-05-01T23:59:56.085Z,80.77
